Time;durP1;ratioP1;P1;durP2;ratioP2;P2;SDS_P1;SDS_P2;PMS_P1;PMS_P2;Temp;Humidity;BMP_temperature;BMP_pressure;BME280_temperature;BME280_humidity;BME280_pressure;Samples;Min_cycle;Max_cycle;Signal;HPM_P1;HPM_P2
2024/01/08 00:02:35;;;;;;;4.17;2.40;;;;;-2.40;96465.00;;;;8301386;28;20226;-68
2024/01/08 00:06:38;;;;;;;2.97;2.60;;;;;-2.40;96460.00;;;;8300647;28;20206;-68
2024/01/08 00:10:43;;;;;;;3.77;2.90;;;;;-2.40;96460.00;;;;8299847;28;20201;-67
2024/01/08 00:14:46;;;;;;;3.33;2.83;;;;;-2.40;96459.00;;;;8299685;28;20194;-68
2024/01/08 00:18:49;;;;;;;3.77;3.10;;;;;-2.40;96458.00;;;;8298974;28;20192;-67
2024/01/08 00:22:52;;;;;;;3.90;2.90;;;;;-2.40;96461.00;;;;8300267;28;20190;-68
2024/01/08 00:26:57;;;;;;;3.20;2.90;;;;;-2.40;96464.00;;;;8300178;28;20200;-68
2024/01/08 00:31:00;;;;;;;4.53;3.10;;;;;-2.40;96465.00;;;;8300055;28;20194;-68
2024/01/08 00:35:04;;;;;;;3.57;2.77;;;;;-2.30;96468.00;;;;8299520;28;20226;-68
2024/01/08 00:39:09;;;;;;;2.30;2.10;;;;;-2.40;96470.00;;;;8299833;28;20199;-68
2024/01/08 00:43:13;;;;;;;2.57;2.37;;;;;-2.30;96468.00;;;;8299092;28;20225;-68
2024/01/08 00:47:16;;;;;;;3.90;3.03;;;;;-2.40;96465.00;;;;8299403;28;20225;-68
2024/01/08 00:51:19;;;;;;;3.30;3.00;;;;;-2.40;96458.00;;;;8299114;28;20201;-69
2024/01/08 00:55:22;;;;;;;3.03;2.73;;;;;-2.30;96472.00;;;;8298114;28;20226;-70
2024/01/08 00:59:27;;;;;;;3.60;2.73;;;;;-2.40;96462.00;;;;8298359;28;20234;-70
2024/01/08 01:03:40;;;;;;;3.50;3.10;;;;;-2.30;96464.00;;;;8255090;28;1194528;-70
2024/01/08 01:07:43;;;;;;;3.17;2.70;;;;;-2.30;96466.00;;;;8300208;28;20185;-70
2024/01/08 01:12:02;;;;;;;3.43;3.10;;;;;-2.30;96479.00;;;;8299877;28;20222;-71
2024/01/08 01:16:07;;;;;;;3.30;2.70;;;;;-2.30;96476.00;;;;8299477;28;20305;-72
2024/01/08 01:20:11;;;;;;;9.33;3.07;;;;;-2.20;96484.00;;;;8299246;28;20221;-72
2024/01/08 01:24:20;;;;;;;3.27;2.97;;;;;-2.20;96474.00;;;;8298885;28;20252;-71
2024/01/08 01:28:24;;;;;;;4.47;3.07;;;;;-2.20;96476.00;;;;8299388;28;20190;-73
2024/01/08 01:32:28;;;;;;;4.47;2.93;;;;;-2.20;96484.00;;;;8299529;28;20237;-72
2024/01/08 01:36:35;;;;;;;4.27;2.90;;;;;-2.20;96487.00;;;;8299093;28;20226;-72
2024/01/08 01:40:38;;;;;;;5.20;3.40;;;;;-2.20;96495.00;;;;8299297;28;20501;-72
2024/01/08 01:44:41;;;;;;;2.17;2.07;;;;;-2.20;96499.00;;;;8299282;28;20218;-71
2024/01/08 01:48:46;;;;;;;5.20;3.20;;;;;-2.20;96480.00;;;;8299004;28;20297;-73
2024/01/08 01:52:50;;;;;;;3.13;2.90;;;;;-2.30;96484.00;;;;8298128;28;20284;-72
2024/01/08 01:56:58;;;;;;;2.67;2.47;;;;;-2.30;96490.00;;;;8298007;28;20222;-71
2024/01/08 02:01:02;;;;;;;3.40;3.00;;;;;-2.30;96499.00;;;;8298523;28;20205;-71
2024/01/08 02:05:07;;;;;;;4.33;3.60;;;;;-2.30;96496.00;;;;8298699;28;20283;-70
2024/01/08 02:09:11;;;;;;;3.10;2.90;;;;;-2.30;96499.00;;;;8298378;28;20609;-70
2024/01/08 02:13:21;;;;;;;3.87;2.90;;;;;-2.30;96492.00;;;;8304297;28;20229;-70
2024/01/08 02:17:24;;;;;;;3.60;2.80;;;;;-2.30;96488.00;;;;8305788;28;20257;-69
2024/01/08 02:21:29;;;;;;;3.27;2.70;;;;;-2.20;96485.00;;;;8305045;28;20539;-69
2024/01/08 02:25:34;;;;;;;4.53;2.40;;;;;-2.30;96489.00;;;;8304436;28;20616;-70
2024/01/08 02:29:37;;;;;;;3.27;2.97;;;;;-2.30;96487.00;;;;8305592;28;20252;-69
2024/01/08 02:33:40;;;;;;;3.07;2.80;;;;;-2.30;96493.00;;;;8304560;28;20199;-70
2024/01/08 02:37:47;;;;;;;5.33;3.37;;;;;-2.30;96496.00;;;;8304726;28;20217;-69
2024/01/08 02:41:52;;;;;;;4.47;2.57;;;;;-2.20;96499.00;;;;8304014;28;20265;-70
2024/01/08 02:45:55;;;;;;;2.87;2.63;;;;;-2.30;96495.00;;;;8304407;28;20203;-70
2024/01/08 02:49:58;;;;;;;3.87;2.63;;;;;-2.20;96499.00;;;;8303804;28;20241;-70
2024/01/08 02:54:01;;;;;;;4.97;3.40;;;;;-2.20;96495.00;;;;8303571;28;20275;-69
2024/01/08 02:58:10;;;;;;;2.77;2.53;;;;;-2.10;96494.00;;;;8303177;28;20222;-70
2024/01/08 03:02:13;;;;;;;5.00;2.97;;;;;-2.10;96496.00;;;;8318197;22;20239;-71
2024/01/08 03:06:16;;;;;;;5.30;3.70;;;;;-2.10;96496.00;;;;8256317;28;20199;-71
2024/01/08 03:10:19;;;;;;;6.27;3.97;;;;;-2.10;96498.00;;;;8263572;28;20202;-74
2024/01/08 03:14:24;;;;;;;3.63;3.17;;;;;-2.00;96505.00;;;;8264320;28;21018;-73
2024/01/08 03:18:27;;;;;;;6.00;3.00;;;;;-2.00;96508.00;;;;8265830;28;20320;-73
2024/01/08 03:22:30;;;;;;;4.33;3.43;;;;;-2.00;96513.00;;;;8261158;28;20264;-73
2024/01/08 03:26:33;;;;;;;3.20;2.87;;;;;-2.00;96513.00;;;;8261681;28;20738;-74
2024/01/08 03:30:38;;;;;;;4.20;3.50;;;;;-2.00;96512.00;;;;8262117;28;20220;-72
2024/01/08 03:34:43;;;;;;;4.57;3.33;;;;;-2.00;96520.00;;;;8261897;28;20192;-73
2024/01/08 03:38:46;;;;;;;6.83;3.80;;;;;-2.00;96517.00;;;;8261424;28;20348;-73
2024/01/08 03:42:49;;;;;;;8.07;4.37;;;;;-2.00;96519.00;;;;8263904;28;20190;-73
2024/01/08 03:46:53;;;;;;;10.57;4.10;;;;;-2.00;96516.00;;;;8259942;28;20222;-74
2024/01/08 03:50:56;;;;;;;5.37;2.90;;;;;-2.00;96519.00;;;;8261763;28;20268;-73
2024/01/08 03:54:59;;;;;;;3.90;3.50;;;;;-1.90;96521.00;;;;8263199;28;20213;-76
2024/01/08 03:59:03;;;;;;;3.97;3.33;;;;;-1.90;96519.00;;;;8262697;28;20226;-74
2024/01/08 04:03:07;;;;;;;5.13;3.53;;;;;-1.90;96514.00;;;;8259702;28;20231;-79
2024/01/08 04:07:10;;;;;;;6.73;3.60;;;;;-2.00;96516.00;;;;8260725;28;20233;-75
2024/01/08 04:11:14;;;;;;;4.97;3.90;;;;;-2.00;96521.00;;;;8259630;28;20202;-76
2024/01/08 04:15:17;;;;;;;5.77;3.30;;;;;-1.90;96517.00;;;;8259561;28;20212;-71
2024/01/08 04:19:21;;;;;;;5.27;3.50;;;;;-2.00;96516.00;;;;8260497;28;20318;-76
2024/01/08 04:23:25;;;;;;;5.10;3.40;;;;;-2.00;96522.00;;;;8262471;28;20236;-75
2024/01/08 04:27:28;;;;;;;6.20;3.70;;;;;-2.00;96532.00;;;;8258960;28;20215;-75
2024/01/08 04:31:31;;;;;;;6.30;4.30;;;;;-2.00;96532.00;;;;8262103;28;20290;-79
2024/01/08 04:35:36;;;;;;;4.57;2.93;;;;;-2.00;96530.00;;;;8261082;28;20206;-78
2024/01/08 04:39:40;;;;;;;7.37;3.70;;;;;-2.00;96526.00;;;;8261650;28;20868;-75
2024/01/08 04:43:43;;;;;;;6.53;3.93;;;;;-1.90;96533.00;;;;8259018;28;20658;-72
2024/01/08 04:47:46;;;;;;;4.97;3.60;;;;;-1.90;96539.00;;;;8258777;28;20234;-73
2024/01/08 04:51:50;;;;;;;7.63;3.93;;;;;-1.90;96535.00;;;;8255351;28;20639;-75
2024/01/08 04:55:54;;;;;;;3.90;2.47;;;;;-2.00;96544.00;;;;8257486;28;20854;-80
2024/01/08 04:59:57;;;;;;;3.70;2.17;;;;;-2.00;96549.00;;;;8255283;28;20314;-76
2024/01/08 05:04:00;;;;;;;3.30;2.50;;;;;-2.00;96541.00;;;;8255079;28;20240;-78
2024/01/08 05:08:05;;;;;;;6.87;3.70;;;;;-2.00;96541.00;;;;8258424;28;20742;-76
2024/01/08 05:12:08;;;;;;;4.07;2.83;;;;;-2.00;96551.00;;;;8258552;28;20209;-77
2024/01/08 05:16:11;;;;;;;3.70;3.10;;;;;-2.10;96549.00;;;;8257378;28;21006;-73
2024/01/08 05:20:17;;;;;;;6.83;3.00;;;;;-2.10;96555.00;;;;8254457;28;20261;-73
2024/01/08 05:24:22;;;;;;;6.23;3.17;;;;;-2.10;96549.00;;;;8258421;28;20216;-74
2024/01/08 05:28:25;;;;;;;5.53;3.50;;;;;-2.10;96565.00;;;;8251155;28;20238;-77
2024/01/08 05:32:28;;;;;;;7.13;3.90;;;;;-2.20;96561.00;;;;8252989;28;20226;-78
2024/01/08 05:36:32;;;;;;;5.70;3.27;;;;;-2.20;96563.00;;;;8254875;28;20275;-76
2024/01/08 05:40:36;;;;;;;4.97;3.70;;;;;-2.20;96571.00;;;;8254859;28;20198;-78
2024/01/08 05:44:39;;;;;;;4.43;3.40;;;;;-2.30;96576.00;;;;8252898;28;20198;-74
2024/01/08 05:48:43;;;;;;;6.67;4.30;;;;;-2.30;96573.00;;;;8260496;28;20194;-73
2024/01/08 05:52:46;;;;;;;5.70;3.77;;;;;-2.30;96576.00;;;;8265726;28;20214;-74
2024/01/08 05:56:50;;;;;;;4.00;3.07;;;;;-2.40;96583.00;;;;8265122;28;20290;-73
2024/01/08 06:00:54;;;;;;;9.27;3.20;;;;;-2.50;96572.00;;;;8264952;28;20748;-73
2024/01/08 06:04:57;;;;;;;5.90;3.13;;;;;-2.50;96588.00;;;;8253926;28;20237;-77
2024/01/08 06:09:00;;;;;;;4.90;3.80;;;;;-2.50;96587.00;;;;8254381;28;20290;-77
2024/01/08 06:13:06;;;;;;;5.60;2.80;;;;;-2.50;96589.00;;;;8251263;28;20289;-76
2024/01/08 06:17:10;;;;;;;3.50;2.87;;;;;-2.40;96590.00;;;;8254848;28;20225;-77
2024/01/08 06:21:13;;;;;;;8.67;3.70;;;;;-2.50;96590.00;;;;8249832;28;20383;-77
2024/01/08 06:25:16;;;;;;;6.33;3.63;;;;;-2.50;96595.00;;;;8246829;28;20759;-71
2024/01/08 06:29:21;;;;;;;3.83;2.57;;;;;-2.50;96591.00;;;;8254666;28;20198;-80
2024/01/08 06:33:24;;;;;;;8.47;3.50;;;;;-2.60;96598.00;;;;8257004;28;20213;-78
2024/01/08 06:37:27;;;;;;;3.50;2.83;;;;;-2.50;96599.00;;;;8255472;28;20288;-77
2024/01/08 06:41:36;;;;;;;5.47;3.07;;;;;-2.60;96600.00;;;;8256426;28;20198;-73
2024/01/08 06:45:47;;;;;;;7.23;3.50;;;;;-2.60;96602.00;;;;8257103;28;20202;-70
2024/01/08 06:49:50;;;;;;;7.60;3.30;;;;;-2.60;96599.00;;;;8257964;28;20328;-77
2024/01/08 06:53:53;;;;;;;9.50;3.70;;;;;-2.60;96603.00;;;;8261611;28;20868;-82
2024/01/08 06:57:56;;;;;;;5.93;3.73;;;;;-2.60;96605.00;;;;8264833;28;20371;-78
2024/01/08 07:02:01;;;;;;;3.73;3.10;;;;;-2.60;96609.00;;;;8263501;28;20494;-75
2024/01/08 07:06:04;;;;;;;6.67;4.27;;;;;-2.60;96609.00;;;;8264562;28;20210;-74
2024/01/08 07:10:08;;;;;;;4.80;3.27;;;;;-2.60;96599.00;;;;8261092;28;20232;-71
2024/01/08 07:14:13;;;;;;;4.83;3.47;;;;;-2.50;96604.00;;;;8258637;28;20209;-72
2024/01/08 07:18:23;;;;;;;6.20;3.40;;;;;-2.50;96604.00;;;;8260454;28;20234;-67
2024/01/08 07:22:26;;;;;;;5.23;3.50;;;;;-2.50;96614.00;;;;8264026;28;20199;-67
2024/01/08 07:26:29;;;;;;;4.10;2.90;;;;;-2.50;96619.00;;;;8262165;28;20213;-67
2024/01/08 07:30:33;;;;;;;5.03;3.83;;;;;-2.50;96619.00;;;;8262746;28;20710;-68
2024/01/08 07:34:38;;;;;;;6.83;4.00;;;;;-2.40;96619.00;;;;8257524;28;20226;-68
2024/01/08 07:38:41;;;;;;;4.57;3.13;;;;;-2.40;96629.00;;;;8265054;28;20233;-69
2024/01/08 07:42:44;;;;;;;5.03;3.17;;;;;-2.40;96626.00;;;;8261776;28;20318;-68
2024/01/08 07:46:48;;;;;;;7.07;3.73;;;;;-2.40;96636.00;;;;8261883;28;20241;-69
2024/01/08 07:50:52;;;;;;;7.17;3.60;;;;;-2.40;96640.00;;;;8261789;28;20288;-66
2024/01/08 07:54:56;;;;;;;5.73;3.83;;;;;-2.40;96643.00;;;;8258200;28;20633;-68
2024/01/08 07:58:59;;;;;;;4.33;2.70;;;;;-2.30;96642.00;;;;8264941;28;20954;-68
2024/01/08 08:03:02;;;;;;;4.20;3.27;;;;;-2.30;96654.00;;;;8261949;28;22062;-67
2024/01/08 08:07:07;;;;;;;7.30;4.60;;;;;-2.20;96655.00;;;;8262995;28;20204;-67
2024/01/08 08:11:11;;;;;;;7.53;4.33;;;;;-2.20;96659.00;;;;8256175;28;20198;-66
2024/01/08 08:15:14;;;;;;;8.30;4.53;;;;;-2.10;96651.00;;;;8261916;28;20202;-66
2024/01/08 08:19:18;;;;;;;6.97;4.43;;;;;-2.00;96661.00;;;;8260238;28;20251;-66
2024/01/08 08:23:24;;;;;;;4.43;3.60;;;;;-1.90;96668.00;;;;8260157;28;20216;-66
2024/01/08 08:27:27;;;;;;;2.97;2.77;;;;;-1.80;96666.00;;;;8262061;28;20890;-67
2024/01/08 08:31:30;;;;;;;4.87;3.47;;;;;-1.80;96667.00;;;;8263853;28;20614;-66
2024/01/08 08:35:36;;;;;;;5.43;4.37;;;;;-1.70;96677.00;;;;8261695;28;20298;-66
2024/01/08 08:39:41;;;;;;;7.43;4.10;;;;;-1.70;96686.00;;;;8261347;28;20324;-66
2024/01/08 08:43:44;;;;;;;7.00;4.00;;;;;-1.60;96694.00;;;;8260761;28;20202;-65
2024/01/08 08:47:47;;;;;;;7.83;4.17;;;;;-1.60;96695.00;;;;8260716;28;20194;-67
2024/01/08 08:51:51;;;;;;;6.73;3.90;;;;;-1.60;96697.00;;;;8260026;28;20269;-66
2024/01/08 08:55:56;;;;;;;6.10;3.70;;;;;-1.50;96701.00;;;;8258494;28;20319;-67
2024/01/08 08:59:59;;;;;;;3.47;2.90;;;;;-1.50;96716.00;;;;8261246;28;20777;-67
2024/01/08 09:04:02;;;;;;;4.90;3.77;;;;;-1.50;96727.00;;;;8261818;28;20782;-66
2024/01/08 09:08:06;;;;;;;5.63;3.53;;;;;-1.50;96734.00;;;;8260669;28;20203;-66
2024/01/08 09:12:11;;;;;;;3.77;3.23;;;;;-1.40;96734.00;;;;8260811;28;20748;-67
2024/01/08 09:16:15;;;;;;;2.90;2.70;;;;;-1.40;96735.00;;;;8261391;28;20245;-66
2024/01/08 09:20:18;;;;;;;6.20;3.80;;;;;-1.40;96733.00;;;;8256887;28;20234;-66
2024/01/08 09:24:21;;;;;;;6.03;3.77;;;;;-1.40;96741.00;;;;8257429;28;20206;-67
2024/01/08 09:28:26;;;;;;;5.83;4.40;;;;;-1.40;96750.00;;;;8260707;28;20199;-67
2024/01/08 09:32:29;;;;;;;4.60;4.10;;;;;-1.40;96761.00;;;;8261126;28;20258;-67
2024/01/08 09:36:32;;;;;;;8.27;4.73;;;;;-1.30;96761.00;;;;8258932;28;20202;-67
2024/01/08 09:40:36;;;;;;;7.30;4.47;;;;;-1.30;96756.00;;;;8258721;28;20911;-67
2024/01/08 09:44:45;;;;;;;6.37;3.40;;;;;-1.30;96752.00;;;;8258055;28;20217;-67
2024/01/08 09:48:49;;;;;;;8.60;3.67;;;;;-1.30;96756.00;;;;8262567;28;20676;-65
2024/01/08 09:52:54;;;;;;;13.67;5.87;;;;;-1.20;96755.00;;;;8260798;28;20684;-67
2024/01/08 09:56:59;;;;;;;8.17;4.60;;;;;-1.10;96753.00;;;;8260682;28;20260;-67
2024/01/08 10:01:05;;;;;;;4.77;3.57;;;;;-1.10;96759.00;;;;8259778;28;20232;-65
2024/01/08 10:05:09;;;;;;;6.93;4.70;;;;;-1.00;96754.00;;;;8257728;28;20212;-65
2024/01/08 10:09:13;;;;;;;7.43;4.80;;;;;-1.00;96757.00;;;;8260085;28;20206;-66
2024/01/08 10:13:18;;;;;;;7.23;4.87;;;;;-1.00;96751.00;;;;8259082;28;20663;-66
2024/01/08 10:17:22;;;;;;;7.40;4.90;;;;;-1.00;96749.00;;;;8257040;28;20849;-66
2024/01/08 10:21:26;;;;;;;9.77;5.03;;;;;-1.00;96744.00;;;;8253961;28;20230;-65
2024/01/08 10:25:29;;;;;;;7.23;4.73;;;;;-1.00;96751.00;;;;8257844;28;20195;-66
2024/01/08 10:29:33;;;;;;;6.03;3.83;;;;;-1.00;96751.00;;;;8256637;28;20203;-65
2024/01/08 10:33:37;;;;;;;8.67;4.83;;;;;-0.90;96745.00;;;;8255178;28;20231;-66
2024/01/08 10:37:41;;;;;;;8.63;5.63;;;;;-0.80;96746.00;;;;8263880;28;20709;-67
2024/01/08 10:41:45;;;;;;;10.10;5.37;;;;;-0.80;96744.00;;;;8256389;28;20731;-66
2024/01/08 10:45:53;;;;;;;9.20;4.97;;;;;-0.70;96752.00;;;;8256571;28;20246;-65
2024/01/08 10:50:01;;;;;;;8.43;4.70;;;;;-0.70;96747.00;;;;8261707;28;21265;-65
2024/01/08 10:54:04;;;;;;;6.93;4.73;;;;;-0.70;96742.00;;;;8260808;28;22210;-66
2024/01/08 10:58:13;;;;;;;4.50;3.43;;;;;-0.70;96759.00;;;;8261410;28;20596;-65
2024/01/08 11:02:17;;;;;;;8.07;5.03;;;;;-0.70;96757.00;;;;8257518;28;20311;-66
2024/01/08 11:06:23;;;;;;;6.37;4.67;;;;;-0.60;96735.00;;;;8259794;28;20234;-67
2024/01/08 11:10:29;;;;;;;9.00;5.10;;;;;-0.50;96743.00;;;;8262548;28;20261;-66
2024/01/08 11:14:33;;;;;;;7.10;4.73;;;;;-0.50;96735.00;;;;8260871;28;20215;-66
2024/01/08 11:18:38;;;;;;;7.10;4.67;;;;;-0.50;96747.00;;;;8259184;28;20219;-66
2024/01/08 11:22:44;;;;;;;10.83;4.97;;;;;-0.50;96750.00;;;;8263138;28;20208;-67
2024/01/08 11:26:50;;;;;;;10.77;5.57;;;;;-0.60;96749.00;;;;8247629;28;20212;-66
2024/01/08 11:31:30;;;;;;;6.33;4.57;;;;;-0.60;96747.00;;;;8264614;28;20228;-66
2024/01/08 11:35:42;;;;;;;9.07;5.00;;;;;-0.50;96746.00;;;;8256894;28;20210;-66
2024/01/08 11:39:51;;;;;;;8.57;5.00;;;;;-0.60;96758.00;;;;8258451;28;20680;-65
2024/01/08 11:43:56;;;;;;;8.37;4.80;;;;;-0.60;96752.00;;;;8260800;28;20290;-65
2024/01/08 11:47:59;;;;;;;8.57;5.60;;;;;-0.70;96753.00;;;;8258825;28;20207;-65
2024/01/08 11:52:04;;;;;;;11.63;6.07;;;;;-0.70;96751.00;;;;8259798;28;20755;-66
2024/01/08 11:56:09;;;;;;;13.43;6.40;;;;;-0.70;96735.00;;;;8262414;28;20201;-66
2024/01/08 12:00:14;;;;;;;9.43;5.70;;;;;-0.60;96740.00;;;;8262369;28;20284;-66
2024/01/08 12:04:17;;;;;;;6.70;4.07;;;;;-0.60;96745.00;;;;8260570;28;20264;-66
2024/01/08 12:08:21;;;;;;;7.50;5.27;;;;;-0.60;96745.00;;;;8254781;28;20242;-65
2024/01/08 12:12:26;;;;;;;10.23;5.37;;;;;-0.60;96748.00;;;;8263361;28;20205;-66
2024/01/08 12:16:29;;;;;;;10.20;5.30;;;;;-0.60;96746.00;;;;8257459;28;20264;-66
2024/01/08 12:20:32;;;;;;;8.93;6.20;;;;;-0.50;96742.00;;;;8257308;28;20325;-67
2024/01/08 12:24:35;;;;;;;5.13;3.63;;;;;-0.50;96748.00;;;;8258688;28;20690;-66
2024/01/08 12:28:42;;;;;;;10.63;5.27;;;;;-0.50;96753.00;;;;8259441;28;20235;-66
2024/01/08 12:32:46;;;;;;;8.40;5.27;;;;;-0.50;96755.00;;;;8257768;28;20238;-67
2024/01/08 12:36:49;;;;;;;7.00;5.13;;;;;-0.40;96751.00;;;;8258547;28;20202;-66
2024/01/08 12:40:53;;;;;;;8.80;5.03;;;;;-0.20;96753.00;;;;8257021;28;20272;-67
2024/01/08 12:44:58;;;;;;;8.03;4.57;;;;;-0.10;96750.00;;;;8256851;28;20254;-68
2024/01/08 12:49:02;;;;;;;11.30;4.03;;;;;-0.10;96760.00;;;;8257945;28;20367;-66
2024/01/08 12:53:05;;;;;;;10.40;6.03;;;;;-0.20;96758.00;;;;8257042;28;20288;-64
2024/01/08 12:57:10;;;;;;;11.67;4.63;;;;;-0.30;96748.00;;;;8262769;28;20916;-64
2024/01/08 13:01:16;;;;;;;8.80;5.23;;;;;-0.40;96755.00;;;;8255720;28;20323;-68
2024/01/08 13:05:19;;;;;;;11.03;4.50;;;;;-0.40;96763.00;;;;8257939;28;20257;-67
2024/01/08 13:09:23;;;;;;;7.10;4.40;;;;;-0.40;96764.00;;;;8258210;28;20202;-68
2024/01/08 13:13:26;;;;;;;10.63;5.60;;;;;-0.40;96763.00;;;;8261673;28;20207;-67
2024/01/08 13:17:31;;;;;;;6.87;4.87;;;;;-0.30;96773.00;;;;8255433;28;20297;-67
2024/01/08 13:21:36;;;;;;;10.27;5.63;;;;;-0.20;96777.00;;;;8257436;28;20233;-68
2024/01/08 13:25:39;;;;;;;9.20;5.27;;;;;-0.20;96773.00;;;;8258732;28;20213;-68
2024/01/08 13:29:43;;;;;;;7.13;4.93;;;;;-0.30;96774.00;;;;8260210;28;20337;-67
2024/01/08 13:33:49;;;;;;;11.70;6.53;;;;;-0.30;96783.00;;;;8261851;28;20238;-66
2024/01/08 13:37:52;;;;;;;9.53;5.27;;;;;-0.30;96784.00;;;;8260213;28;20657;-66
2024/01/08 13:41:55;;;;;;;10.00;5.40;;;;;-0.40;96787.00;;;;8256524;28;20232;-67
2024/01/08 13:45:58;;;;;;;8.23;4.73;;;;;-0.40;96794.00;;;;8258669;28;20844;-64
2024/01/08 13:50:05;;;;;;;7.63;4.47;;;;;-0.50;96791.00;;;;8262147;28;20401;-64
2024/01/08 13:54:08;;;;;;;11.97;6.77;;;;;-0.40;96790.00;;;;8258566;28;20294;-68
2024/01/08 13:58:11;;;;;;;10.87;6.90;;;;;-0.50;96800.00;;;;8258821;28;20317;-65
2024/01/08 14:02:14;;;;;;;8.03;5.43;;;;;-0.50;96812.00;;;;8257426;28;20377;-64
2024/01/08 14:06:19;;;;;;;9.73;4.63;;;;;-0.60;96807.00;;;;8257295;28;22331;-65
2024/01/08 14:10:23;;;;;;;12.23;5.60;;;;;-0.70;96819.00;;;;8265332;28;20198;-65
2024/01/08 14:14:26;;;;;;;8.37;4.67;;;;;-0.70;96818.00;;;;8266734;28;20214;-63
2024/01/08 14:18:30;;;;;;;11.60;6.63;;;;;-0.80;96819.00;;;;8267711;28;20215;-68
2024/01/08 14:22:35;;;;;;;10.20;5.90;;;;;-0.90;96828.00;;;;8265907;28;20256;-65
2024/01/08 14:26:38;;;;;;;11.33;6.40;;;;;-1.00;96823.00;;;;8265332;28;20575;-68
2024/01/08 14:30:41;;;;;;;10.33;5.87;;;;;-1.00;96833.00;;;;8266043;28;20206;-67
2024/01/08 14:34:44;;;;;;;12.83;6.70;;;;;-1.00;96841.00;;;;8262531;28;20203;-67
2024/01/08 14:38:49;;;;;;;9.20;5.27;;;;;-1.10;96839.00;;;;8267608;28;20210;-64
2024/01/08 14:42:52;;;;;;;11.73;6.07;;;;;-1.10;96844.00;;;;8265067;28;20231;-66
2024/01/08 14:46:55;;;;;;;9.10;5.13;;;;;-1.20;96845.00;;;;8263536;28;20206;-66
2024/01/08 14:51:00;;;;;;;13.67;5.37;;;;;-1.20;96846.00;;;;8263893;28;20648;-64
2024/01/08 14:55:05;;;;;;;11.37;6.03;;;;;-1.30;96849.00;;;;8266547;28;20202;-65
2024/01/08 14:59:11;;;;;;;12.63;6.70;;;;;-1.40;96845.00;;;;8267168;28;20510;-65
2024/01/08 15:03:14;;;;;;;15.30;7.80;;;;;-1.40;96859.00;;;;8265538;28;20241;-66
2024/01/08 15:07:17;;;;;;;11.47;6.77;;;;;-1.40;96867.00;;;;8265327;28;20198;-64
2024/01/08 15:11:22;;;;;;;11.60;6.43;;;;;-1.40;96871.00;;;;8264953;28;20226;-66
2024/01/08 15:15:26;;;;;;;9.97;5.27;;;;;-1.40;96883.00;;;;8259704;28;20214;-70
2024/01/08 15:19:29;;;;;;;9.20;5.23;;;;;-1.60;96872.00;;;;8261916;28;20293;-70
2024/01/08 15:23:33;;;;;;;9.50;6.20;;;;;-1.60;96882.00;;;;8264459;28;20312;-68
2024/01/08 15:27:38;;;;;;;12.93;6.47;;;;;-1.70;96874.00;;;;8264333;28;20211;-68
2024/01/08 15:31:41;;;;;;;11.03;5.67;;;;;-1.80;96888.00;;;;8261075;28;20211;-68
2024/01/08 15:35:44;;;;;;;12.83;6.63;;;;;-1.80;96891.00;;;;8262836;28;20782;-68
2024/01/08 15:39:47;;;;;;;11.67;5.77;;;;;-1.80;96893.00;;;;8264025;28;20210;-68
2024/01/08 15:43:53;;;;;;;14.50;6.67;;;;;-1.90;96897.00;;;;8266025;28;20800;-67
2024/01/08 15:47:56;;;;;;;11.97;6.30;;;;;-2.00;96900.00;;;;8267926;28;20203;-68
2024/01/08 15:52:00;;;;;;;12.73;6.30;;;;;-2.00;96902.00;;;;8269623;28;20206;-65
2024/01/08 15:56:04;;;;;;;11.97;5.17;;;;;-2.00;96911.00;;;;8267162;28;20230;-66
2024/01/08 16:00:10;;;;;;;12.63;6.77;;;;;-2.10;96906.00;;;;8266917;28;20217;-66
2024/01/08 16:04:13;;;;;;;15.03;6.70;;;;;-2.10;96908.00;;;;8267689;28;20316;-66
2024/01/08 16:08:17;;;;;;;11.87;6.00;;;;;-2.10;96906.00;;;;8263471;28;21270;-65
2024/01/08 16:12:21;;;;;;;16.13;6.57;;;;;-2.20;96908.00;;;;8266643;28;20248;-65
2024/01/08 16:16:26;;;;;;;12.60;7.03;;;;;-2.20;96922.00;;;;8267708;28;20304;-65
2024/01/08 16:20:29;;;;;;;9.57;5.63;;;;;-2.20;96927.00;;;;8266829;28;20995;-66
2024/01/08 16:24:32;;;;;;;13.33;6.03;;;;;-2.30;96923.00;;;;8266058;28;20203;-66
2024/01/08 16:28:36;;;;;;;17.43;6.90;;;;;-2.30;96917.00;;;;8267210;28;20225;-66
2024/01/08 16:32:40;;;;;;;12.03;6.40;;;;;-2.30;96929.00;;;;8264611;28;20485;-66
2024/01/08 16:36:44;;;;;;;27.47;6.27;;;;;-2.30;96953.00;;;;8266847;28;20207;-65
2024/01/08 16:40:47;;;;;;;10.77;5.63;;;;;-2.30;96937.00;;;;8264378;28;20903;-65
2024/01/08 16:44:51;;;;;;;14.43;6.77;;;;;-2.40;96951.00;;;;8262307;28;20686;-65
2024/01/08 16:48:55;;;;;;;14.13;6.33;;;;;-2.40;96963.00;;;;8261126;28;20675;-67
2024/01/08 16:52:59;;;;;;;12.67;5.47;;;;;-2.40;96961.00;;;;8262021;28;20207;-66
2024/01/08 16:57:02;;;;;;;15.13;7.13;;;;;-2.40;96961.00;;;;8263779;28;20671;-66
2024/01/08 17:01:05;;;;;;;15.70;7.07;;;;;-2.40;96975.00;;;;8262813;28;20576;-65
2024/01/08 17:05:11;;;;;;;12.27;7.00;;;;;-2.50;96964.00;;;;8262147;28;20337;-66
2024/01/08 17:09:14;;;;;;;11.03;6.23;;;;;-2.50;96980.00;;;;8258996;28;21019;-67
2024/01/08 17:13:20;;;;;;;13.87;6.07;;;;;-2.50;96969.00;;;;8260410;28;20260;-67
2024/01/08 17:17:23;;;;;;;13.40;6.27;;;;;-2.50;96969.00;;;;8255864;28;20212;-67
2024/01/08 17:21:28;;;;;;;9.93;4.90;;;;;-2.50;96967.00;;;;8254995;28;20221;-67
2024/01/08 17:25:31;;;;;;;9.13;5.37;;;;;-2.50;96965.00;;;;8257541;28;20225;-66
2024/01/08 17:29:34;;;;;;;9.47;4.37;;;;;-2.50;96978.00;;;;8264038;28;20233;-66
2024/01/08 17:33:38;;;;;;;17.27;6.60;;;;;-2.60;96966.00;;;;8259818;28;20289;-66
2024/01/08 17:37:43;;;;;;;18.40;6.70;;;;;-2.60;96981.00;;;;8261203;28;20785;-66
2024/01/08 17:41:47;;;;;;;12.17;5.37;;;;;-2.70;96985.00;;;;8254909;28;20253;-66
2024/01/08 17:45:50;;;;;;;12.03;5.43;;;;;-2.70;96990.00;;;;8262138;28;20256;-66
2024/01/08 17:49:56;;;;;;;11.03;6.33;;;;;-2.70;96998.00;;;;8261746;28;20206;-66
2024/01/08 17:54:01;;;;;;;16.60;7.27;;;;;-2.80;97001.00;;;;8260392;28;20264;-67
2024/01/08 17:58:05;;;;;;;12.60;6.57;;;;;-2.80;97001.00;;;;8258772;28;20206;-66
2024/01/08 18:02:09;;;;;;;16.67;7.10;;;;;-2.90;97004.00;;;;8263480;28;20238;-66
2024/01/08 18:06:12;;;;;;;19.63;6.63;;;;;-2.90;97001.00;;;;8260194;28;20212;-67
2024/01/08 18:10:18;;;;;;;10.67;6.00;;;;;-2.90;97008.00;;;;8261904;28;20949;-66
2024/01/08 18:14:22;;;;;;;15.97;7.17;;;;;-3.00;97023.00;;;;8260553;28;20624;-67
2024/01/08 18:18:25;;;;;;;16.83;7.13;;;;;-3.00;97019.00;;;;8260224;28;20237;-67
2024/01/08 18:22:28;;;;;;;12.93;6.97;;;;;-3.10;97013.00;;;;8260383;28;20234;-66
2024/01/08 18:26:33;;;;;;;14.87;6.10;;;;;-3.10;97030.00;;;;8261868;28;20206;-66
2024/01/08 18:30:37;;;;;;;15.27;6.47;;;;;-3.10;97028.00;;;;8259403;28;20317;-67
2024/01/08 18:34:40;;;;;;;20.33;6.87;;;;;-3.10;97034.00;;;;8260835;28;20292;-66
2024/01/08 18:38:43;;;;;;;20.37;8.63;;;;;-3.20;97037.00;;;;8258270;28;20209;-67
2024/01/08 18:42:48;;;;;;;13.63;6.97;;;;;-3.30;97049.00;;;;8261877;28;21483;-67
2024/01/08 18:46:51;;;;;;;17.53;7.97;;;;;-3.30;97059.00;;;;8260193;28;20228;-67
2024/01/08 18:50:57;;;;;;;17.97;7.00;;;;;-3.40;97057.00;;;;8259729;28;20293;-66
2024/01/08 18:55:01;;;;;;;18.13;7.57;;;;;-3.50;97070.00;;;;8264085;28;20198;-67
2024/01/08 18:59:05;;;;;;;11.40;5.97;;;;;-3.50;97078.00;;;;8266291;28;20676;-66
2024/01/08 19:03:08;;;;;;;21.33;8.47;;;;;-3.70;97068.00;;;;8263609;28;20229;-64
2024/01/08 19:07:12;;;;;;;13.10;6.70;;;;;-3.80;97069.00;;;;8265711;28;20212;-65
2024/01/08 19:11:15;;;;;;;19.23;8.40;;;;;-3.80;97074.00;;;;8266954;28;20253;-64
2024/01/08 19:15:20;;;;;;;16.63;7.07;;;;;-3.90;97068.00;;;;8266097;28;20268;-64
2024/01/08 19:19:23;;;;;;;11.77;6.80;;;;;-4.00;97073.00;;;;8265856;28;20695;-64
2024/01/08 19:23:26;;;;;;;15.70;7.43;;;;;-4.10;97098.00;;;;8260120;28;20725;-65
2024/01/08 19:27:30;;;;;;;18.10;7.47;;;;;-4.20;97090.00;;;;8268934;28;20506;-65
2024/01/08 19:31:34;;;;;;;23.83;9.17;;;;;-4.30;97083.00;;;;8268528;28;20212;-65
2024/01/08 19:35:38;;;;;;;21.13;9.17;;;;;-4.40;97084.00;;;;8269354;28;20241;-65
2024/01/08 19:39:41;;;;;;;20.63;7.23;;;;;-4.40;97094.00;;;;8266751;28;20245;-65
2024/01/08 19:43:44;;;;;;;19.90;9.17;;;;;-4.50;97100.00;;;;8267965;28;20231;-65
2024/01/08 19:47:49;;;;;;;16.03;8.03;;;;;-4.60;97094.00;;;;8264288;28;20226;-65
2024/01/08 19:51:52;;;;;;;20.07;8.93;;;;;-4.60;97101.00;;;;8266393;28;20252;-64
2024/01/08 19:55:55;;;;;;;27.23;11.70;;;;;-4.70;97097.00;;;;8266951;28;20206;-65
2024/01/08 19:59:59;;;;;;;25.23;11.70;;;;;-4.70;97088.00;;;;8268310;28;20202;-64
2024/01/08 20:04:04;;;;;;;16.27;7.93;;;;;-4.80;97091.00;;;;8260927;28;20697;-65
2024/01/08 20:08:07;;;;;;;20.63;8.77;;;;;-4.80;97085.00;;;;8261932;28;20296;-65
2024/01/08 20:12:10;;;;;;;16.07;7.27;;;;;-4.80;97093.00;;;;8265072;28;20198;-65
2024/01/08 20:16:13;;;;;;;9.40;6.13;;;;;-4.90;97085.00;;;;8264748;28;20300;-66